SIA105 WMKK-WSSS
Flight info
| Callsign | SIA105 |
|---|---|
| Flight time | N/A |
| Altitude | 21000 |
| Route | RUSBU1D RUSBU Y511 TOPOR A464 ARAMA DCT TEBUN TEBUN1A |
| Aircraft | A359/H-SDE2E3GHIJ3J4J5LM1ORWXY/LB1D1 |
Departure
| Time | 2026-04-30 15:16 |
|---|---|
| Airport | Kuala Lumpur International Airport (WMKK) |
Arrival
| Time | N/A |
|---|---|
| Airport | Singapore Changi Airport (WSSS) |
| Time | Latitude | Longitude | Altitude | Speed | Heading |
|---|---|---|---|---|---|
| 2026-04-30 14:30 | 2.74954 | 101.71156 | 79 ft | 0 kts | 56° |
| 2026-04-30 15:00 | 2.74952 | 101.71152 | 79 ft | 2 kts | 56° |
| 2026-04-30 15:01 | 2.74929 | 101.71120 | 84 ft | 3 kts | 56° |
| 2026-04-30 15:01 | 2.74921 | 101.71107 | 83 ft | 1 kts | 56° |
| 2026-04-30 15:01 | 2.74909 | 101.71091 | 84 ft | 3 kts | 358° |
| 2026-04-30 15:02 | 2.74908 | 101.71088 | 84 ft | 3 kts | 315° |
| 2026-04-30 15:02 | 2.74895 | 101.71102 | 83 ft | 3 kts | 311° |
| 2026-04-30 15:03 | 2.74873 | 101.71124 | 84 ft | 0 kts | 326° |
| 2026-04-30 15:04 | 2.74884 | 101.71116 | 83 ft | 8 kts | 326° |
| 2026-04-30 15:05 | 2.75156 | 101.71117 | 84 ft | 20 kts | 56° |
| 2026-04-30 15:06 | 2.75187 | 101.71162 | 85 ft | 0 kts | 56° |
| 2026-04-30 15:06 | 2.75253 | 101.71259 | 83 ft | 16 kts | 56° |
| 2026-04-30 15:07 | 2.75429 | 101.71522 | 72 ft | 21 kts | 60° |
| 2026-04-30 15:07 | 2.75283 | 101.71677 | 69 ft | 32 kts | 146° |
| 2026-04-30 15:08 | 2.74919 | 101.71922 | 88 ft | 29 kts | 146° |
| 2026-04-30 15:08 | 2.74811 | 101.71994 | 84 ft | 0 kts | 146° |
| 2026-04-30 15:12 | 2.74775 | 101.72101 | 87 ft | 0 kts | 56° |
| 2026-04-30 15:14 | 2.74938 | 101.72140 | 87 ft | 0 kts | 325° |
| 2026-04-30 15:14 | 2.75417 | 101.71819 | 86 ft | 112 kts | 323° |
| 2026-04-30 15:16 | 2.80818 | 101.68578 | 3141 ft | 207 kts | 338° |
| 2026-04-30 15:17 | 2.87309 | 101.66116 | 4752 ft | 306 kts | 347° |
| 2026-04-30 15:18 | 2.94186 | 101.70730 | 6301 ft | 268 kts | 68° |
| 2026-04-30 15:19 | 2.93740 | 101.76037 | 6727 ft | 277 kts | 125° |